Time;durP1;ratioP1;P1;durP2;ratioP2;P2;SDS_P1;SDS_P2;PMS_P1;PMS_P2;Temp;Humidity;BMP_temperature;BMP_pressure;BME280_temperature;BME280_humidity;BME280_pressure;Samples;Min_cycle;Max_cycle;Signal;HPM_P1;HPM_P2
2022/11/24 02:33:20;;;;;;;28.63;19.90;;;;;;;-0.44;100.00;99186.63;1747892;79;25363;-70
2022/11/24 02:35:51;;;;;;;35.00;22.40;;;;;;;-0.43;100.00;99185.59;1704579;83;21708;-80
2022/11/24 02:38:41;;;;;;;37.47;21.10;;;;;;;-0.35;100.00;99185.97;1716303;83;21218;-74
2022/11/24 02:41:24;;;;;;;38.60;25.27;;;;;;;-0.30;100.00;99191.00;1702671;83;21151;-78
2022/11/24 02:46:46;;;;;;;33.33;19.50;;;;;;;-0.23;100.00;99192.34;1696849;83;21022;-73
2022/11/24 02:49:13;;;;;;;28.07;18.87;;;;;;;-0.26;100.00;99189.59;1700928;83;21041;-77
2022/11/24 02:51:39;;;;;;;26.97;20.23;;;;;;;-0.24;100.00;99189.41;1725828;83;21412;-77
2022/11/24 02:54:06;;;;;;;28.27;20.63;;;;;;;-0.23;100.00;99188.38;1728122;82;21156;-76
2022/11/24 02:56:32;;;;;;;31.20;22.40;;;;;;;-0.20;100.00;99182.23;1707919;83;20990;-75
2022/11/24 02:58:59;;;;;;;31.60;19.00;;;;;;;-0.23;100.00;99180.45;1698955;83;21003;-78
2022/11/24 03:01:25;;;;;;;29.23;20.00;;;;;;;-0.20;100.00;99174.30;1716062;83;21039;-78
2022/11/24 03:03:52;;;;;;;27.73;17.47;;;;;;;-0.18;100.00;99180.69;1701077;83;21541;-77
2022/11/24 03:06:18;;;;;;;25.77;17.10;;;;;;;-0.14;100.00;99173.50;1728220;83;21053;-78
2022/11/24 03:08:46;;;;;;;28.30;19.73;;;;;;;-0.16;100.00;99170.76;1728047;83;20986;-78
2022/11/24 03:11:12;;;;;;;33.40;20.67;;;;;;;-0.20;100.00;99182.73;1728399;83;21034;-77
2022/11/24 03:13:41;;;;;;;23.60;15.77;;;;;;;-0.26;100.00;99189.59;1726360;82;20994;-77
2022/11/24 03:16:09;;;;;;;27.27;19.87;;;;;;;-0.26;100.00;99188.77;1679703;83;22476;-68
2022/11/24 03:18:35;;;;;;;26.70;18.10;;;;;;;-0.22;100.00;99193.48;1693525;83;20978;-72
2022/11/24 03:21:02;;;;;;;27.00;18.70;;;;;;;-0.16;100.00;99164.97;1692886;84;21070;-82
2022/11/24 03:23:29;;;;;;;25.47;16.80;;;;;;;-0.12;100.00;99154.82;1681751;84;21049;-76
2022/11/24 03:26:09;;;;;;;21.13;16.53;;;;;;;-0.09;100.00;99156.56;1696199;84;21028;-79
2022/11/24 03:28:36;;;;;;;19.63;14.77;;;;;;;-0.06;100.00;99154.05;1606187;86;21359;-74
2022/11/24 03:31:02;;;;;;;28.03;17.03;;;;;;;0.00;100.00;99148.00;1622577;86;21515;-72
2022/11/24 03:33:29;;;;;;;22.83;16.10;;;;;;;-0.06;100.00;99127.62;1656735;86;20952;-71
2022/11/24 03:35:55;;;;;;;20.75;16.35;;;;;;;-0.04;100.00;99136.16;1642320;87;21050;-73
2022/11/24 03:38:22;;;;;;;25.20;16.27;;;;;;;-0.02;100.00;99136.79;1619870;86;21023;-72
2022/11/24 03:40:49;;;;;;;20.60;15.00;;;;;;;-0.04;100.00;99130.86;1618094;87;21219;-70
2022/11/24 03:43:16;;;;;;;24.53;18.57;;;;;;;-0.04;100.00;99151.52;1637844;86;21579;-71
2022/11/24 03:45:48;;;;;;;26.20;17.37;;;;;;;-0.04;100.00;99138.80;1638645;87;20975;-70
2022/11/24 03:48:20;;;;;;;24.23;16.27;;;;;;;-0.01;100.00;99130.50;1621783;87;21043;-69
2022/11/24 03:50:55;;;;;;;25.53;14.60;;;;;;;-0.02;100.00;99124.89;1656222;86;21141;-72
2022/11/24 03:53:22;;;;;;;21.50;14.53;;;;;;;0.00;100.00;99122.88;1621448;86;21576;-72
2022/11/24 03:55:50;;;;;;;26.90;16.23;;;;;;;0.07;100.00;99120.25;1637239;87;21015;-71
2022/11/24 03:58:17;;;;;;;27.57;17.37;;;;;;;0.07;100.00;99116.29;1637371;87;20979;-72
2022/11/24 04:00:44;;;;;;;20.23;13.67;;;;;;;0.05;100.00;99120.44;1616659;87;21086;-73
2022/11/24 04:03:10;;;;;;;25.10;17.77;;;;;;;0.07;100.00;99114.46;1639534;86;21006;-80
2022/11/24 04:05:37;;;;;;;21.25;16.07;;;;;;;0.07;100.00;99123.72;1619755;86;21110;-78
2022/11/24 04:08:04;;;;;;;19.95;14.58;;;;;;;0.06;100.00;99123.90;1601062;88;21081;-76
2022/11/24 04:10:34;;;;;;;21.77;16.50;;;;;;;0.04;100.00;99113.55;1608771;89;20972;-79
2022/11/24 04:13:14;;;;;;;22.43;16.13;;;;;;;0.07;100.00;99112.32;1619250;87;21610;-77
2022/11/24 04:15:42;;;;;;;24.72;17.37;;;;;;;0.12;100.00;99108.58;1608553;89;21051;-79
2022/11/24 04:18:10;;;;;;;21.00;15.58;;;;;;;0.13;100.00;99107.58;1624357;87;21283;-78
2022/11/24 04:20:38;;;;;;;22.40;16.10;;;;;;;0.16;100.00;99111.95;1659675;86;20994;-79
2022/11/24 04:23:04;;;;;;;19.32;14.45;;;;;;;0.18;100.00;99117.06;1660288;86;21043;-79
2022/11/24 04:25:31;;;;;;;19.00;12.85;;;;;;;0.21;100.00;99110.86;1632015;87;21098;-78
2022/11/24 04:27:57;;;;;;;22.05;16.57;;;;;;;0.19;100.00;99110.23;1637571;86;21065;-77
2022/11/24 04:30:25;;;;;;;21.50;14.83;;;;;;;0.19;100.00;99118.16;1651758;85;21026;-76
2022/11/24 04:32:52;;;;;;;20.80;14.85;;;;;;;0.16;100.00;99101.38;1651628;86;21038;-76
2022/11/24 04:35:18;;;;;;;20.95;14.58;;;;;;;0.18;100.00;99102.52;1610798;87;20988;-78
2022/11/24 04:37:48;;;;;;;21.90;15.23;;;;;;;0.20;100.00;99094.68;1603269;88;21001;-77
2022/11/24 04:40:16;;;;;;;20.88;14.05;;;;;;;0.17;100.00;99095.59;1648935;86;20959;-76
2022/11/24 04:42:43;;;;;;;20.35;15.50;;;;;;;0.17;100.00;99095.59;1629521;86;21104;-75
2022/11/24 04:45:11;;;;;;;18.42;14.55;;;;;;;0.18;100.00;99103.84;1654151;86;20978;-77
2022/11/24 04:47:38;;;;;;;19.12;13.95;;;;;;;0.19;100.00;99094.90;1653958;86;21069;-76
2022/11/24 04:50:06;;;;;;;18.90;13.35;;;;;;;0.18;100.00;99091.94;1653209;86;21054;-77
2022/11/24 04:52:33;;;;;;;21.33;16.05;;;;;;;0.21;100.00;99094.18;1627583;86;21153;-77
2022/11/24 04:55:02;;;;;;;20.27;14.68;;;;;;;0.23;100.00;99102.74;1627724;86;21110;-75
2022/11/24 04:57:28;;;;;;;19.55;15.28;;;;;;;0.28;100.00;99107.75;1652576;86;21133;-77
2022/11/24 04:59:55;;;;;;;24.75;16.32;;;;;;;0.23;100.00;99110.17;1636152;86;20958;-73
2022/11/24 05:02:22;;;;;;;21.07;16.10;;;;;;;0.21;100.00;99115.33;1640545;86;21205;-78
2022/11/24 05:04:49;;;;;;;19.90;14.90;;;;;;;0.24;100.00;99116.27;1638615;86;21061;-78
2022/11/24 05:07:16;;;;;;;22.77;17.67;;;;;;;0.21;100.00;99123.27;1662061;86;21553;-77
2022/11/24 05:12:30;;;;;;;22.25;15.30;;;;;;;0.25;100.00;99117.88;1656557;84;21003;-76
2022/11/24 05:15:01;;;;;;;17.15;14.23;;;;;;;0.29;100.00;99123.90;1680052;84;21114;-74
2022/11/24 05:17:29;;;;;;;19.55;15.30;;;;;;;0.29;100.00;99125.73;1671011;84;21057;-74
2022/11/24 05:19:56;;;;;;;19.17;15.72;;;;;;;0.27;100.00;99124.63;1654151;86;22055;-72
2022/11/24 05:22:23;;;;;;;19.45;15.80;;;;;;;0.24;100.00;99115.74;1663766;84;21578;-76
2022/11/24 05:24:50;;;;;;;20.88;16.02;;;;;;;0.32;100.00;99117.42;1657173;86;22375;-74
2022/11/24 05:27:16;;;;;;;22.77;17.00;;;;;;;0.34;100.00;99118.84;1636297;86;20991;-76
2022/11/24 05:29:43;;;;;;;20.62;16.85;;;;;;;0.32;100.00;99110.30;1629255;86;21085;-75
2022/11/24 05:32:09;;;;;;;19.40;15.25;;;;;;;0.33;100.00;99116.41;1633750;86;21090;-76
2022/11/24 05:34:36;;;;;;;18.42;14.47;;;;;;;0.37;100.00;99130.36;1636951;86;20986;-75
2022/11/24 05:37:04;;;;;;;22.58;16.10;;;;;;;0.42;100.00;99134.55;1632952;86;21151;-71
2022/11/24 05:39:34;;;;;;;22.73;15.28;;;;;;;0.40;100.00;99142.36;1615902;87;21066;-75
2022/11/24 05:44:51;;;;;;;24.70;16.97;;;;;;;0.39;100.00;99152.63;1621454;86;21187;-73
2022/11/24 05:47:21;;;;;;;24.27;17.70;;;;;;;0.41;100.00;99149.28;1631364;86;22216;-76
2022/11/24 05:49:47;;;;;;;25.00;17.77;;;;;;;0.42;100.00;99146.95;1651192;86;20982;-76
2022/11/24 05:52:14;;;;;;;25.68;16.97;;;;;;;0.44;100.00;99152.84;1648376;86;21042;-72
2022/11/24 05:55:55;;;;;;;;;;;;;;;;;;;;;
2022/11/24 05:57:46;;;;;;;24.30;17.65;;;;;;;0.40;100.00;99151.11;1603660;86;21046;-75
2022/11/24 06:04:23;;;;;;;29.02;19.17;;;;;;;0.48;100.00;99157.26;1589233;89;21085;-74
2022/11/24 06:07:23;;;;;;;25.65;18.42;;;;;;;0.50;100.00;99152.06;1542284;91;21114;-73
2022/11/24 06:10:16;;;;;;;26.85;16.93;;;;;;;0.58;100.00;99158.49;1540993;90;21144;-70
2022/11/24 06:12:44;;;;;;;24.37;19.80;;;;;;;0.56;100.00;99161.86;1570157;89;21280;-69
2022/11/24 06:15:11;;;;;;;23.80;17.75;;;;;;;0.53;100.00;99162.23;1589803;88;21106;-69
2022/11/24 06:17:38;;;;;;;23.85;18.25;;;;;;;0.50;100.00;99161.33;1605165;88;21210;-71
2022/11/24 06:20:06;;;;;;;26.07;19.95;;;;;;;0.49;100.00;99164.16;1617033;88;21105;-72
2022/11/24 06:22:33;;;;;;;23.73;17.87;;;;;;;0.53;100.00;99166.20;1568868;88;21223;-73
2022/11/24 06:25:01;;;;;;;24.70;18.25;;;;;;;0.61;100.00;99164.73;1586565;88;21163;-71
2022/11/24 06:27:27;;;;;;;32.08;20.43;;;;;;;0.60;100.00;99160.95;1614862;87;20999;-70
2022/11/24 06:29:54;;;;;;;25.27;17.75;;;;;;;0.61;100.00;99158.62;1610874;88;21090;-71
2022/11/24 06:32:20;;;;;;;23.67;16.45;;;;;;;0.61;100.00;99158.11;1601901;88;21118;-72
2022/11/24 06:34:48;;;;;;;24.72;17.37;;;;;;;0.59;100.00;99158.81;1611637;88;21713;-72
2022/11/24 06:37:15;;;;;;;24.80;17.62;;;;;;;0.55;100.00;99150.96;1625337;86;21152;-70
2022/11/24 06:39:41;;;;;;;28.75;19.52;;;;;;;0.57;100.00;99160.03;1651130;86;21058;-70
2022/11/24 06:42:08;;;;;;;28.02;18.40;;;;;;;0.56;100.00;99165.02;1636863;86;21025;-72
2022/11/24 06:44:34;;;;;;;24.55;18.07;;;;;;;0.58;100.00;99168.25;1625126;86;21043;-72
2022/11/24 06:47:00;;;;;;;30.00;20.45;;;;;;;0.63;100.00;99169.80;1597384;88;21585;-70
2022/11/24 06:49:27;;;;;;;20.50;16.48;;;;;;;0.67;100.00;99170.53;1687402;84;21858;-70
2022/11/24 06:51:54;;;;;;;24.87;18.10;;;;;;;0.71;100.00;99167.00;1655360;86;21618;-72
2022/11/24 06:54:21;;;;;;;28.90;21.30;;;;;;;0.69;100.00;99166.37;1657298;86;21594;-72
2022/11/24 06:56:49;;;;;;;28.52;20.10;;;;;;;0.66;100.00;99160.98;1653166;86;21049;-72
2022/11/24 06:59:18;;;;;;;23.98;18.55;;;;;;;0.68;100.00;99162.91;1653983;86;21015;-72
2022/11/24 07:01:45;;;;;;;23.67;16.35;;;;;;;0.70;100.00;99162.21;1679148;84;21828;-72
2022/11/24 07:04:13;;;;;;;32.70;17.65;;;;;;;0.73;100.00;99158.33;1696296;84;21019;-73
2022/11/24 07:06:40;;;;;;;22.30;16.85;;;;;;;0.75;100.00;99153.17;1698138;84;21007;-74
2022/11/24 07:09:09;;;;;;;18.55;15.63;;;;;;;0.77;100.00;99159.06;1699171;84;21038;-73
2022/11/24 07:11:36;;;;;;;22.35;17.95;;;;;;;0.82;100.00;99155.30;1684869;83;21109;-74
2022/11/24 07:14:03;;;;;;;20.97;16.20;;;;;;;0.84;100.00;99155.11;1647774;85;22208;-75
2022/11/24 07:16:30;;;;;;;22.65;18.07;;;;;;;0.85;100.00;99154.10;1669280;86;21685;-73
2022/11/24 07:18:57;;;;;;;25.77;18.50;;;;;;;0.84;100.00;99151.96;1635601;87;21567;-74
2022/11/24 07:21:23;;;;;;;23.65;17.07;;;;;;;0.79;100.00;99145.63;1611673;87;21592;-72
2022/11/24 07:23:51;;;;;;;23.83;17.65;;;;;;;0.74;100.00;99148.88;1649673;86;21152;-73
2022/11/24 07:26:20;;;;;;;18.15;15.58;;;;;;;0.75;100.00;99145.23;1652655;86;21239;-72
2022/11/24 07:28:46;;;;;;;23.18;17.10;;;;;;;0.78;100.00;99144.81;1677418;84;21555;-71
2022/11/24 07:31:17;;;;;;;23.02;17.23;;;;;;;0.82;100.00;99146.55;1668931;84;21078;-72
2022/11/24 07:33:48;;;;;;;28.27;15.85;;;;;;;0.83;100.00;99142.38;1636876;86;21545;-72
2022/11/24 07:36:15;;;;;;;24.37;17.92;;;;;;;0.80;100.00;99142.80;1628166;87;21104;-69
2022/11/24 07:38:41;;;;;;;26.37;16.70;;;;;;;0.81;100.00;99146.27;1649927;85;21213;-67
2022/11/24 07:41:11;;;;;;;22.95;17.73;;;;;;;0.88;100.00;99147.08;1616538;88;21111;-72
2022/11/24 07:43:38;;;;;;;26.90;18.62;;;;;;;0.94;100.00;99153.41;1631255;87;21598;-70
2022/11/24 07:46:06;;;;;;;29.80;19.12;;;;;;;0.93;100.00;99147.80;1659841;85;20939;-68
2022/11/24 07:48:33;;;;;;;27.37;20.60;;;;;;;0.90;100.00;99149.53;1616415;88;21086;-68
2022/11/24 07:51:03;;;;;;;43.63;22.05;;;;;;;0.89;100.00;99151.36;1624984;87;21159;-67
2022/11/24 07:53:31;;;;;;;21.65;16.85;;;;;;;0.95;100.00;99151.06;1646334;87;21002;-68
2022/11/24 07:56:00;;;;;;;30.00;19.37;;;;;;;1.00;100.00;99144.16;1624115;87;21103;-72
2022/11/24 07:58:31;;;;;;;30.70;21.70;;;;;;;1.00;100.00;99147.31;1645932;85;21081;-69
2022/11/24 08:00:58;;;;;;;29.77;18.77;;;;;;;1.02;100.00;99143.43;1640398;87;21422;-70
2022/11/24 08:03:24;;;;;;;32.33;21.05;;;;;;;1.10;100.00;99144.58;1645966;87;21221;-72
2022/11/24 08:05:56;;;;;;;29.82;20.02;;;;;;;1.13;100.00;99153.44;1641799;85;21069;-70
2022/11/24 08:08:23;;;;;;;32.48;21.27;;;;;;;1.18;100.00;99154.15;1609164;88;21732;-69
2022/11/24 08:10:52;;;;;;;28.75;20.15;;;;;;;1.17;100.00;99161.27;1671704;84;21568;-69
2022/11/24 08:13:20;;;;;;;34.43;20.72;;;;;;;1.23;100.00;99164.45;1697034;84;21554;-70
2022/11/24 08:15:46;;;;;;;28.62;22.15;;;;;;;1.26;100.00;99161.89;1668404;85;22713;-70
2022/11/24 08:18:13;;;;;;;27.00;18.07;;;;;;;1.24;100.00;99164.76;1626803;85;21663;-70
2022/11/24 08:20:39;;;;;;;24.87;19.37;;;;;;;1.26;100.00;99164.53;1651383;85;21500;-72
2022/11/24 08:23:06;;;;;;;28.17;19.77;;;;;;;1.25;100.00;99158.42;1629667;87;21088;-71
2022/11/24 08:25:33;;;;;;;25.65;18.42;;;;;;;1.25;100.00;99162.90;1616749;88;21596;-71
2022/11/24 08:28:00;;;;;;;24.37;17.15;;;;;;;1.21;100.00;99162.50;1634564;85;22120;-72
2022/11/24 08:30:29;;;;;;;30.10;18.25;;;;;;;1.21;100.00;99168.30;1627970;86;21122;-69
2022/11/24 08:32:59;;;;;;;26.95;17.62;;;;;;;1.26;100.00;99170.66;1669415;84;21078;-73
2022/11/24 08:35:27;;;;;;;30.32;20.08;;;;;;;1.21;100.00;99166.47;1692341;84;21535;-72
2022/11/24 08:37:53;;;;;;;29.55;19.02;;;;;;;1.20;100.00;99163.51;1653678;86;21063;-70
2022/11/24 08:40:20;;;;;;;22.60;15.60;;;;;;;1.20;100.00;99164.05;1695507;84;21769;-71
2022/11/24 08:42:48;;;;;;;29.82;17.02;;;;;;;1.19;100.00;99161.08;1667821;84;21051;-71
2022/11/24 08:45:14;;;;;;;25.52;17.40;;;;;;;1.23;100.00;99154.36;1683555;84;21046;-70
2022/11/24 08:47:42;;;;;;;28.15;17.82;;;;;;;1.25;100.00;99145.68;1662598;85;21638;-73
2022/11/24 08:50:09;;;;;;;28.73;20.57;;;;;;;1.27;100.00;99137.86;1667495;86;22110;-70
2022/11/24 08:52:36;;;;;;;30.17;21.75;;;;;;;1.29;100.00;99141.64;1667327;85;21287;-68
2022/11/24 08:55:04;;;;;;;29.70;19.25;;;;;;;1.29;100.00;99139.80;1666559;84;20971;-69
2022/11/24 08:57:31;;;;;;;26.68;19.70;;;;;;;1.28;100.00;99143.97;1691707;84;22155;-69
2022/11/24 08:59:57;;;;;;;32.17;20.20;;;;;;;1.26;100.00;99145.48;1672751;84;21043;-71
2022/11/24 09:02:24;;;;;;;32.83;19.45;;;;;;;1.27;100.00;99151.61;1686846;84;21034;-71
2022/11/24 09:04:51;;;;;;;28.17;19.23;;;;;;;1.33;100.00;99146.83;1625842;86;21176;-71
2022/11/24 09:07:17;;;;;;;28.62;19.30;;;;;;;1.37;100.00;99152.02;1642116;84;21061;-73
2022/11/24 09:09:44;;;;;;;22.50;17.15;;;;;;;1.34;100.00;99145.00;1628636;86;21130;-71
2022/11/24 09:12:11;;;;;;;30.80;22.95;;;;;;;1.31;100.00;99143.05;1671608;84;21002;-69
2022/11/24 09:14:37;;;;;;;29.63;20.23;;;;;;;1.32;100.00;99141.22;1667308;84;21082;-72
2022/11/24 09:17:04;;;;;;;30.00;17.32;;;;;;;1.30;100.00;99134.79;1665666;86;21084;-70
2022/11/24 09:19:30;;;;;;;23.50;16.32;;;;;;;1.35;100.00;99135.50;1651267;86;21027;-72
2022/11/24 09:21:57;;;;;;;25.90;18.65;;;;;;;1.40;100.00;99131.73;1660103;86;21048;-72
2022/11/24 09:24:24;;;;;;;26.55;17.45;;;;;;;1.39;100.00;99135.93;1673593;84;20979;-71
2022/11/24 09:26:52;;;;;;;22.80;16.57;;;;;;;1.42;100.00;99135.00;1653404;86;21113;-73
2022/11/24 09:29:19;;;;;;;31.60;22.20;;;;;;;1.45;100.00;99126.64;1647047;85;22027;-71
2022/11/24 09:31:45;;;;;;;35.73;22.85;;;;;;;1.47;100.00;99130.41;1676458;84;21669;-71
2022/11/24 09:34:14;;;;;;;23.05;17.30;;;;;;;1.54;100.00;99127.23;1652809;84;21539;-71
2022/11/24 09:36:44;;;;;;;33.88;19.77;;;;;;;1.57;100.00;99130.81;1640093;87;21027;-70
2022/11/24 09:39:10;;;;;;;24.57;18.02;;;;;;;1.60;100.00;99123.27;1671561;84;21126;-72
2022/11/24 09:41:49;;;;;;;30.52;17.90;;;;;;;1.60;100.00;99124.59;1695525;84;21885;-73
2022/11/24 09:44:33;;;;;;;26.55;18.67;;;;;;;1.62;100.00;99118.58;1675598;84;21023;-72
2022/11/24 09:47:40;;;;;;;23.57;16.32;;;;;;;1.66;100.00;99122.95;1647489;86;21536;-72
2022/11/24 09:50:15;;;;;;;23.60;17.87;;;;;;;1.68;100.00;99120.89;1640141;87;21010;-73
2022/11/24 09:52:51;;;;;;;21.77;15.98;;;;;;;1.66;100.00;99119.80;1646969;84;22296;-73
2022/11/24 09:55:38;;;;;;;24.75;19.25;;;;;;;1.60;100.00;99117.14;1639795;87;21131;-73
2022/11/24 09:58:36;;;;;;;22.37;16.82;;;;;;;1.58;100.00;99109.93;1640487;87;21035;-72
2022/11/24 10:01:17;;;;;;;20.20;14.68;;;;;;;1.61;100.00;99105.53;1640304;87;21125;-68
2022/11/24 10:03:49;;;;;;;24.63;17.35;;;;;;;1.63;100.00;99100.31;1662985;84;21042;-73
2022/11/24 10:06:40;;;;;;;20.70;13.90;;;;;;;1.61;100.00;99102.37;1672526;84;21139;-73
2022/11/24 10:09:24;;;;;;;19.37;13.03;;;;;;;1.60;100.00;99103.39;1666631;84;21150;-71
2022/11/24 10:12:26;;;;;;;16.65;13.53;;;;;;;1.59;100.00;99101.75;1665654;86;21083;-72
2022/11/24 10:15:26;;;;;;;17.42;13.58;;;;;;;1.60;100.00;99101.24;1664351;84;22170;-73
2022/11/24 10:18:04;;;;;;;19.27;13.62;;;;;;;1.60;100.00;99099.92;1666352;84;21090;-72
2022/11/24 10:20:39;;;;;;;21.15;18.35;;;;;;;1.57;100.00;99101.16;1665112;84;21066;-75
2022/11/24 10:23:31;;;;;;;19.42;15.72;;;;;;;1.60;100.00;99097.27;1621992;86;21155;-71
2022/11/24 10:26:03;;;;;;;15.88;11.73;;;;;;;1.64;100.00;99104.59;1659468;84;21067;-69
2022/11/24 10:28:40;;;;;;;19.07;14.20;;;;;;;1.69;100.00;99105.30;1640038;87;21121;-68
2022/11/24 10:31:34;;;;;;;19.57;13.95;;;;;;;1.65;100.00;99102.77;1650639;86;21588;-68
2022/11/24 10:34:33;;;;;;;17.20;14.47;;;;;;;1.66;100.00;99107.05;1619468;86;21508;-69
2022/11/24 10:37:18;;;;;;;18.45;12.98;;;;;;;1.68;100.00;99104.99;1636657;85;20991;-67
2022/11/24 10:40:19;;;;;;;15.95;13.30;;;;;;;1.63;100.00;99109.59;1637036;87;21107;-68
2022/11/24 10:42:47;;;;;;;14.93;11.33;;;;;;;1.64;100.00;99105.92;1610964;89;21067;-68
2022/11/24 10:45:24;;;;;;;16.57;12.43;;;;;;;1.68;100.00;99099.69;1636412;86;21078;-69
2022/11/24 10:47:50;;;;;;;17.60;12.58;;;;;;;1.71;100.00;99100.63;1615953;87;21054;-69
2022/11/24 10:50:25;;;;;;;14.80;10.85;;;;;;;1.70;100.00;99100.31;1632326;87;21114;-69
2022/11/24 10:53:28;;;;;;;15.18;12.18;;;;;;;1.69;100.00;99103.98;1632137;86;21089;-69
2022/11/24 10:55:58;;;;;;;;;;;;;;;1.65;100.00;99098.28;1627467;87;21126;-69
2022/11/24 10:58:30;;;;;;;17.85;13.03;;;;;;;1.70;100.00;99100.31;1612813;87;20187;-73
2022/11/24 11:01:18;;;;;;;17.37;12.07;;;;;;;1.77;100.00;99100.30;1621715;87;21379;-70
2022/11/24 11:03:53;;;;;;;15.90;12.78;;;;;;;1.80;100.00;99107.83;1587338;88;21201;-69
2022/11/24 11:06:28;;;;;;;18.25;15.13;;;;;;;1.80;100.00;99106.00;1624901;86;21049;-67
2022/11/24 11:09:18;;;;;;;15.30;11.90;;;;;;;1.80;100.00;99101.20;1630972;86;21622;-70
2022/11/24 11:11:48;;;;;;;17.60;14.07;;;;;;;1.80;100.00;99110.48;1612318;87;21097;-71
2022/11/24 11:14:31;;;;;;;17.48;13.53;;;;;;;1.73;100.00;99103.86;1629257;87;21071;-69
2022/11/24 11:16:58;;;;;;;18.35;13.45;;;;;;;1.68;100.00;99106.31;1636374;87;21109;-70
2022/11/24 11:19:42;;;;;;;21.25;15.40;;;;;;;1.72;100.00;99111.03;1609170;88;20979;-70
2022/11/24 11:22:20;;;;;;;24.92;16.20;;;;;;;1.71;100.00;99102.77;1637331;87;21078;-69
2022/11/24 11:24:47;;;;;;;24.70;15.13;;;;;;;1.67;100.00;99103.39;1631720;86;20967;-70
2022/11/24 11:27:21;;;;;;;20.23;14.10;;;;;;;1.71;100.00;99108.06;1617747;87;21622;-71
2022/11/24 11:29:48;;;;;;;19.20;14.30;;;;;;;1.78;100.00;99104.05;1622505;87;21132;-69
2022/11/24 11:32:23;;;;;;;20.30;15.03;;;;;;;1.80;100.00;99106.00;1636734;87;21051;-68
2022/11/24 11:34:52;;;;;;;22.32;15.30;;;;;;;1.80;100.00;99105.18;1638332;86;21118;-70
2022/11/24 11:37:23;;;;;;;19.05;13.20;;;;;;;1.74;100.00;99097.03;1653156;86;21071;-68
2022/11/24 11:39:51;;;;;;;16.50;11.22;;;;;;;1.73;100.00;99094.08;1628479;87;21057;-70
2022/11/24 11:42:35;;;;;;;20.52;13.50;;;;;;;1.75;100.00;99095.20;1616820;86;22015;-68
2022/11/24 11:45:21;;;;;;;16.50;12.55;;;;;;;1.74;100.00;99085.11;1631112;87;21175;-70
2022/11/24 11:48:07;;;;;;;17.73;12.25;;;;;;;1.79;100.00;99085.81;1597980;89;20970;-68
2022/11/24 11:50:55;;;;;;;19.30;13.13;;;;;;;1.86;100.00;99088.45;1610930;88;20990;-68
2022/11/24 11:53:57;;;;;;;14.73;10.58;;;;;;;1.88;100.00;99087.72;1620018;87;21621;-70
2022/11/24 11:56:30;;;;;;;17.25;10.65;;;;;;;1.80;100.00;99089.28;1601693;87;21878;-66
2022/11/24 11:59:28;;;;;;;16.87;12.25;;;;;;;1.82;100.00;99089.39;1616981;87;21065;-72
2022/11/24 12:02:32;;;;;;;20.45;14.58;;;;;;;1.79;100.00;99084.48;1637446;86;21104;-70
2022/11/24 12:05:01;;;;;;;14.10;11.18;;;;;;;1.86;100.00;99084.48;1619985;87;21046;-72
2022/11/24 12:07:51;;;;;;;14.40;10.88;;;;;;;1.92;100.00;99084.44;1625699;86;21704;-70
2022/11/24 12:10:47;;;;;;;15.88;14.03;;;;;;;2.00;100.00;99083.41;1615297;88;22114;-69
2022/11/24 12:13:43;;;;;;;15.50;11.33;;;;;;;2.03;100.00;99090.94;1627496;86;21007;-69
2022/11/24 12:16:21;;;;;;;12.65;11.10;;;;;;;1.97;100.00;99089.11;1626098;86;20986;-70
2022/11/24 12:19:28;;;;;;;18.67;11.40;;;;;;;1.95;100.00;99099.95;1629328;87;21018;-71
2022/11/24 12:22:27;;;;;;;19.42;14.43;;;;;;;1.92;100.00;99092.93;1628080;87;21523;-69
2022/11/24 12:25:16;;;;;;;19.75;13.78;;;;;;;1.95;100.00;99093.83;1632907;86;21149;-70
2022/11/24 12:28:07;;;;;;;27.98;19.42;;;;;;;2.02;100.00;99094.60;1632833;86;20979;-69
2022/11/24 12:30:57;;;;;;;26.37;18.12;;;;;;;2.00;100.00;99096.67;1549391;89;21093;-70
2022/11/24 12:33:58;;;;;;;21.37;15.50;;;;;;;1.94;100.00;99096.98;1645897;85;21168;-70
2022/11/24 12:36:51;;;;;;;22.67;16.90;;;;;;;1.89;100.00;99095.98;1632617;85;21118;-69
2022/11/24 12:39:54;;;;;;;;;;;;;;;1.94;100.00;99093.01;1679456;84;21129;-69
2022/11/24 12:42:44;;;;;;;20.08;14.23;;;;;;;1.98;100.00;99100.84;1593174;88;21107;-69
2022/11/24 12:45:14;;;;;;;17.27;14.18;;;;;;;1.91;100.00;99100.06;1675217;84;21113;-69
2022/11/24 12:48:26;;;;;;;21.23;16.15;;;;;;;1.87;100.00;99100.16;1653030;84;21046;-76
2022/11/24 12:50:54;;;;;;;26.35;21.50;;;;;;;1.85;100.00;99090.80;1620343;87;21094;-72
2022/11/24 12:53:33;;;;;;;19.32;15.43;;;;;;;1.87;100.00;99089.55;1640582;87;22053;-72
2022/11/24 12:56:06;;;;;;;16.30;14.15;;;;;;;1.90;100.00;99101.59;1616337;87;21094;-71
2022/11/24 12:58:49;;;;;;;16.20;13.08;;;;;;;1.89;100.00;99099.45;1657896;84;21544;-70
2022/11/24 13:01:44;;;;;;;18.45;14.83;;;;;;;1.92;100.00;99099.56;1665068;85;21063;-72
2022/11/24 13:04:43;;;;;;;23.87;16.17;;;;;;;1.92;100.00;99097.70;1648100;86;21599;-71
2022/11/24 13:07:15;;;;;;;26.75;19.25;;;;;;;1.90;100.00;99098.44;1626484;88;21269;-69
2022/11/24 13:10:21;;;;;;;27.67;18.50;;;;;;;1.93;100.00;99098.00;1665825;86;21041;-71
2022/11/24 13:12:59;;;;;;;24.63;18.48;;;;;;;2.00;100.00;99100.14;1663260;85;20926;-69
2022/11/24 13:15:26;;;;;;;24.60;18.10;;;;;;;1.98;100.00;99096.87;1669897;84;21590;-71
2022/11/24 13:17:53;;;;;;;16.48;13.80;;;;;;;1.97;100.00;99095.73;1670835;85;21090;-69
2022/11/24 13:20:32;;;;;;;24.43;15.08;;;;;;;1.98;100.00;99095.55;1669176;85;21430;-69
2022/11/24 13:23:03;;;;;;;21.00;15.32;;;;;;;1.96;100.00;99096.28;1668368;85;20974;-71
2022/11/24 13:25:32;;;;;;;22.60;16.45;;;;;;;1.98;100.00;99102.17;1682358;84;21086;-78
2022/11/24 13:28:00;;;;;;;15.43;10.90;;;;;;;2.00;100.00;99099.32;1684501;84;21042;-77
2022/11/24 13:30:46;;;;;;;14.15;11.35;;;;;;;2.01;100.00;99104.42;1679934;84;21102;-71
2022/11/24 13:33:18;;;;;;;16.40;12.60;;;;;;;2.02;100.00;99105.20;1660876;84;22255;-70
2022/11/24 13:36:11;;;;;;;19.98;15.03;;;;;;;2.01;100.00;99109.73;1669718;84;21063;-71
2022/11/24 13:38:46;;;;;;;18.32;12.28;;;;;;;2.03;100.00;99103.69;1669010;86;21015;-71
2022/11/24 13:41:36;;;;;;;16.23;13.13;;;;;;;2.01;100.00;99107.08;1667303;85;21083;-71
2022/11/24 13:44:22;;;;;;;18.30;12.35;;;;;;;2.04;100.00;99109.30;1669090;86;21646;-72
2022/11/24 13:47:10;;;;;;;16.77;11.65;;;;;;;2.05;100.00;99109.61;1669318;85;21000;-70
2022/11/24 13:49:39;;;;;;;15.68;12.63;;;;;;;2.09;100.00;99108.67;1643370;86;22223;-71
2022/11/24 13:52:40;;;;;;;15.72;11.75;;;;;;;2.15;100.00;99123.75;1669103;85;21039;-71
2022/11/24 13:55:18;;;;;;;14.70;11.63;;;;;;;2.13;100.00;99119.16;1618527;87;21057;-71
2022/11/24 13:57:56;;;;;;;13.05;10.80;;;;;;;2.08;100.00;99118.46;1625442;88;21038;-71
2022/11/24 14:00:27;;;;;;;13.45;9.55;;;;;;;2.13;100.00;99121.30;1624969;88;21226;-71
2022/11/24 14:03:07;;;;;;;13.75;11.38;;;;;;;2.16;100.00;99120.05;1669404;85;21544;-71
2022/11/24 14:05:39;;;;;;;21.80;14.30;;;;;;;2.11;100.00;99125.20;1668424;85;21046;-72
2022/11/24 14:08:07;;;;;;;15.58;11.85;;;;;;;2.14;100.00;99126.09;1669798;85;21039;-71
2022/11/24 14:10:36;;;;;;;20.60;14.35;;;;;;;2.16;100.00;99131.48;1669392;86;21543;-71
2022/11/24 14:13:24;;;;;;;25.15;14.73;;;;;;;2.14;100.00;99126.91;1669441;86;21236;-72
2022/11/24 14:16:18;;;;;;;16.67;13.28;;;;;;;2.20;100.00;99129.25;1643232;87;21089;-73
2022/11/24 14:18:49;;;;;;;15.75;12.33;;;;;;;2.24;100.00;99129.12;1643041;87;21006;-72
2022/11/24 14:21:33;;;;;;;24.18;16.82;;;;;;;2.33;100.00;99134.49;1643341;87;21062;-71
2022/11/24 14:24:17;;;;;;;20.17;15.30;;;;;;;2.36;100.00;99128.76;1651741;85;21149;-71
2022/11/24 14:26:44;;;;;;;17.70;15.78;;;;;;;2.41;100.00;99138.73;1655888;84;33129;-71
2022/11/24 14:29:19;;;;;;;17.92;14.35;;;;;;;2.39;100.00;99136.83;1678221;85;21046;-73
2022/11/24 14:31:56;;;;;;;21.35;14.25;;;;;;;2.41;100.00;99138.73;1677728;85;21069;-71
2022/11/24 14:34:26;;;;;;;26.33;16.12;;;;;;;2.41;100.00;99130.78;1652298;86;21025;-70